Pilot No 5 — WDC3840 — position and weather

sailwx.info

Track history (hours):
 
Tides and Currents Weather Stations Pressure Air Temp Water Temp Dewpoint Dewpoint Depression Visibility Wind Speed Wind Dir Waves Ship Positions

Pilot No 5

Owner: P E P INC, FT LAUDERDALE, FL. More information available from US FCC via Universal Licensing System and Coast Guard Vessel Documentation Center.

Last reported at 2017-Feb-25 22:33 UTC. Time now 2017-Feb-26 03:16 UTC.
Position N 26°06' W 080°07'.

Length 6 m.

Type: Pilot. MMSI: 367015090.

Date/timePositionNaut miles runAvg speedWind from/ knotsBaromVisibWave heightAir tempDewpointWater temp
2017-Feb-25 22:33N 26°06' W 080°07'0 0.5
2017-Feb-25 21:33N 26°06' W 080°07'1 1.3
2017-Feb-25 20:33N 26°04' W 080°07'1 1.2
2017-Feb-25 19:32N 26°06' W 080°07'1 0.7
2017-Feb-25 17:33N 26°06' W 080°06'1 1.1
2017-Feb-25 16:33N 26°06' W 080°07'4 4.0
2017-Feb-25 15:33N 26°05' W 080°03'4 3.8
2017-Feb-25 14:34N 26°04' W 080°07'2 1.7
2017-Feb-25 13:33N 26°06' W 080°07'0 0.4
2017-Feb-25 12:33N 26°06' W 080°07'0 0.4
2017-Feb-25 11:16N 26°06' W 080°07'3 3.7
2017-Feb-25 10:33N 26°06' W 080°04'2 2.4
2017-Feb-25 09:33N 26°05' W 080°07'1 0.4
2017-Feb-25 07:07N 26°06' W 080°07'0 0.9
2017-Feb-25 06:33N 26°06' W 080°07'0 0.4
2017-Feb-25 05:16N 26°06' W 080°07'1 2.1
2017-Feb-25 04:33N 26°05' W 080°07'1 1.2
2017-Feb-25 03:19N 26°06' W 080°07'4 4.9
2017-Feb-25 02:33N 26°04' W 080°04'3 2.8
2017-Feb-25 01:33N 26°06' W 080°07'2 1.6
2017-Feb-25 00:33N 26°06' W 080°05'1 0.6
2017-Feb-24 22:33N 26°06' W 080°06'2 1.5
2017-Feb-24 21:33N 26°06' W 080°05'0 0.5
2017-Feb-24 20:33N 26°05' W 080°04'3 2.5
2017-Feb-24 19:33N 26°06' W 080°07'0 0.2
2017-Feb-24 18:33N 26°05' W 080°07'1 0.6
2017-Feb-24 17:10N 26°06' W 080°07'1 1.8
2017-Feb-24 16:33N 26°06' W 080°06'1 0.7
2017-Feb-24 15:33N 26°05' W 080°07'1 0.7
2017-Feb-24 14:33N 26°06' W 080°07'2 1.8
2017-Feb-24 13:34N 26°06' W 080°06'2 1.6
2017-Feb-24 12:33N 26°05' W 080°07'0 0.4
2017-Feb-24 11:33N 26°04' W 080°07'2 2.1
2017-Feb-24 10:33N 26°05' W 080°05'2 2.0
2017-Feb-24 09:33N 26°05' W 080°07'2 0.4
2017-Feb-24 04:34N 26°06' W 080°05'2 1.1
2017-Feb-24 02:34N 26°04' W 080°07'0 0.2
2017-Feb-24 01:33N 26°05' W 080°07'1 0.8
2017-Feb-24 00:31N 26°05' W 080°07'2 1.9
2017-Feb-23 23:33N 26°05' W 080°05'2 1.8
2017-Feb-23 22:33N 26°06' W 080°07'0 0.2
2017-Feb-23 21:33N 26°05' W 080°07'1 0.5
2017-Feb-23 20:07N 26°06' W 080°07'1 1.5
2017-Feb-23 19:33N 26°05' W 080°07'1 0.4
2017-Feb-23 17:27N 26°06' W 080°07'1 1.3
2017-Feb-23 16:33N 26°05' W 080°07'1 0.9
2017-Feb-23 15:20N 26°06' W 080°07'1 1.1
2017-Feb-23 14:33N 26°05' W 080°07'2 1.5
2017-Feb-23 13:33N 26°06' W 080°05'1 1.4
2017-Feb-23 12:33N 26°06' W 080°07'1 0.7
2017-Feb-23 11:29N 26°06' W 080°07'1 1.4
2017-Feb-23 10:33N 26°05' W 080°07'2 1.2
2017-Feb-23 08:33N 26°06' W 080°04'2 1.8
2017-Feb-23 07:34N 26°06' W 080°06'1 0.7
2017-Feb-23 06:33N 26°05' W 080°07'0 0.2
2017-Feb-23 05:33N 26°05' W 080°07'1 0.6
2017-Feb-23 04:33N 26°06' W 080°07'0 0.1
2017-Feb-23 02:33N 26°06' W 080°07'1 1.2
2017-Feb-23 01:33N 26°06' W 080°05'1 1.4
2017-Feb-23 00:33N 26°06' W 080°07'1 0.1
2017-Feb-22 12:24N 26°06' W 080°07'1 1.1
2017-Feb-22 11:33N 26°05' W 080°07'2 2.4
2017-Feb-22 10:33N 26°05' W 080°04'2 2.3
2017-Feb-22 09:33N 26°05' W 080°07'1 0.9
2017-Feb-22 08:33N 26°04' W 080°07'1 1.0
2017-Feb-22 07:34N 26°05' W 080°07'0 0.4
2017-Feb-22 06:33N 26°06' W 080°07'0 0.3
2017-Feb-22 05:07N 26°06' W 080°07'2 1.0
2017-Feb-22 03:34N 26°06' W 080°06'1 1.2
2017-Feb-22 02:33N 26°06' W 080°07'1 0.7
2017-Feb-22 01:33N 26°05' W 080°07'0 0.2
2017-Feb-22 00:33N 26°05' W 080°07'0 0.2
2017-Feb-21 23:33N 26°05' W 080°07'0 0.1
2017-Feb-21 22:33N 26°05' W 080°07'5 5.1
2017-Feb-21 21:33N 26°07' W 080°02'5 5.1
2017-Feb-21 20:33N 26°06' W 080°07'0 0.3
2017-Feb-21 19:33N 26°05' W 080°07'0 0.2
2017-Feb-21 18:33N 26°06' W 080°07'0 0.3
2017-Feb-21 17:33N 26°06' W 080°06'2 1.6
2017-Feb-21 16:33N 26°06' W 080°05'1 0.9
2017-Feb-21 15:33N 26°05' W 080°06'2 0.5
2017-Feb-21 12:33N 26°06' W 080°07'4 3.7
2017-Feb-21 11:33N 26°06' W 080°03'3 3.0
2017-Feb-21 10:33N 26°06' W 080°06'1 0.8
2017-Feb-21 09:33N 26°05' W 080°07'0 0.2
2017-Feb-21 08:33N 26°05' W 080°07'0 0.1
2017-Feb-21 07:33N 26°05' W 080°07'1 0.6
2017-Feb-21 06:33N 26°06' W 080°07'0 0.0
2017-Feb-21 01:33N 26°06' W 080°07'1 0.6
2017-Feb-21 00:33N 26°05' W 080°07'4 3.7
2017-Feb-20 23:33N 26°06' W 080°03'4 3.9
2017-Feb-20 22:33N 26°05' W 080°07'1 0.7
2017-Feb-20 21:33N 26°06' W 080°07'1 0.1
2017-Feb-20 11:21N 26°06' W 080°07'2 2.9
2017-Feb-20 10:33N 26°06' W 080°05'1 0.7
2017-Feb-20 09:34N 26°06' W 080°04'1 1.4
2017-Feb-20 08:34N 26°06' W 080°03'4 4.1
2017-Feb-20 07:33N 26°06' W 080°07'0 0.0
2017-Feb-20 06:32N 26°06' W 080°07'1 0.9
2017-Feb-20 05:34N 26°05' W 080°07'1 1.3
2017-Feb-20 04:33N 26°06' W 080°06'1 1.3
2017-Feb-20 03:33N 26°06' W 080°07'2 2.3
2017-Feb-20 02:34N 26°06' W 080°05'1 1.1
2017-Feb-20 01:33N 26°06' W 080°06'1 1.1
2017-Feb-20 00:33N 26°05' W 080°07'3 3.3
2017-Feb-19 23:33N 26°05' W 080°03'3 3.3
2017-Feb-19 22:33N 26°05' W 080°07'1 0.6
2017-Feb-19 21:33N 26°06' W 080°06'1 0.1
2017-Feb-19 11:06N 26°06' W 080°07'5 9.8
2017-Feb-19 10:33N 26°06' W 080°01'1 1.3
2017-Feb-19 09:33N 26°06' W 080°03'4 0.9
2017-Feb-19 05:10N 26°06' W 080°07'1 1.3
2017-Feb-19 04:33N 26°05' W 080°07'0 0.3
2017-Feb-19 03:33N 26°06' W 080°07'1 1.3
2017-Feb-19 02:33N 26°06' W 080°06'1 1.4
2017-Feb-19 01:33N 26°06' W 080°07'0 0.1
2017-Feb-19 00:33N 26°06' W 080°07'0 0.4
2017-Feb-18 23:28N 26°06' W 080°07'2 2.4
2017-Feb-18 22:33N 26°06' W 080°05'2 1.6
2017-Feb-18 21:33N 26°06' W 080°07'1 0.1
2017-Feb-18 11:05N 26°06' W 080°07'611.3
2017-Feb-18 10:33N 26°06' W 080°01'1 0.9
2017-Feb-18 09:33N 26°05' W 080°01'5 2.7
2017-Feb-18 07:33N 26°06' W 080°07'0 0.4
2017-Feb-18 06:33N 26°05' W 080°07'0 0.3
2017-Feb-18 05:33N 26°06' W 080°07'1 0.5
2017-Feb-18 04:31N 26°06' W 080°07'2 2.1
2017-Feb-18 03:34N 26°05' W 080°05'2 1.6
2017-Feb-18 02:33N 26°06' W 080°04'3 3.0
2017-Feb-18 01:33N 26°05' W 080°07'1 0.6
2017-Feb-17 23:33N 26°06' W 080°07'1 0.9
2017-Feb-17 22:33N 26°06' W 080°07'1 0.8
2017-Feb-17 21:33N 26°06' W 080°06'1 1.2
2017-Feb-17 20:33N 26°06' W 080°07'1 0.1
2017-Feb-17 15:30N 26°06' W 080°07'0 0.0
2017-Feb-17 14:33N 26°06' W 080°07'0 0.0
2017-Feb-17 13:32N 26°06' W 080°07'0 0.0
2017-Feb-17 12:32N 26°06' W 080°07'1 0.9
2017-Feb-17 11:33N 26°05' W 080°07'1 0.9
2017-Feb-17 10:34N 26°04' W 080°07'2 1.6
2017-Feb-17 09:33N 26°06' W 080°06'4 4.2
2017-Feb-17 08:33N 26°06' W 080°01'5 5.3
2017-Feb-17 07:34N 26°05' W 080°07'1 0.8
2017-Feb-17 06:32N 26°06' W 080°07'1 0.8
2017-Feb-17 05:33N 26°06' W 080°07'2 1.5
2017-Feb-17 04:33N 26°06' W 080°05'2 0.9
2017-Feb-17 02:33N 26°06' W 080°07'0 0.1
2017-Feb-17 01:33N 26°06' W 080°07'0 0.5
2017-Feb-17 00:33N 26°05' W 080°07'1 0.8
2017-Feb-16 23:33N 26°06' W 080°06'1 0.7
2017-Feb-16 22:33N 26°06' W 080°07'2 2.2
2017-Feb-16 21:34N 26°06' W 080°05'2 1.5
2017-Feb-16 20:07N 26°06' W 080°07'1 1.4
2017-Feb-16 19:33N 26°06' W 080°07'1 0.9
2017-Feb-16 18:34N 26°06' W 080°06'1 0.5
2017-Feb-16 16:07N 26°06' W 080°07'4 7.2
2017-Feb-16 15:33N 26°06' W 080°03'0 0.3
2017-Feb-16 14:33N 26°06' W 080°03'4 3.8
2017-Feb-16 13:33N 26°06' W 080°07'3 3.2
2017-Feb-16 12:33N 26°08' W 080°04'3 3.0
2017-Feb-16 11:33N 26°06' W 080°07'2 2.4
2017-Feb-16 10:33N 26°06' W 080°05'1 0.7
2017-Feb-16 09:33N 26°06' W 080°04'3 2.9
2017-Feb-16 08:33N 26°05' W 080°07'2 2.2
2017-Feb-16 07:33N 26°05' W 080°05'2 1.9
2017-Feb-16 06:30N 26°05' W 080°07'0 0.5
2017-Feb-16 05:33N 26°06' W 080°07'1 0.2
2017-Feb-16 00:33N 26°05' W 080°07'1 1.0
2017-Feb-15 23:34N 26°05' W 080°07'  
Track history (hours):
 
Tides and Currents Weather Stations Pressure Air Temp Water Temp Dewpoint Dewpoint Depression Visibility Wind Speed Wind Dir Waves Ship Positions

Pilot No 5

Owner: P E P INC, FT LAUDERDALE, FL. More information available from US FCC via Universal Licensing System and Coast Guard Vessel Documentation Center.

Last reported at 2017-Feb-25 22:33 UTC. Time now 2017-Feb-26 03:16 UTC.
Position N 26°06' W 080°07'.

Length 6 m.

Type: Pilot. MMSI: 367015090.

Date/timePositionNaut miles runAvg speedWind from/ knotsBaromVisibWave heightAir tempDewpointWater temp
2017-Feb-25 22:33N 26°06' W 080°07'0 0.5
2017-Feb-25 21:33N 26°06' W 080°07'1 1.3
2017-Feb-25 20:33N 26°04' W 080°07'1 1.2
2017-Feb-25 19:32N 26°06' W 080°07'1 0.7
2017-Feb-25 17:33N 26°06' W 080°06'1 1.1
2017-Feb-25 16:33N 26°06' W 080°07'4 4.0
2017-Feb-25 15:33N 26°05' W 080°03'4 3.8
2017-Feb-25 14:34N 26°04' W 080°07'2 1.7
2017-Feb-25 13:33N 26°06' W 080°07'0 0.4
2017-Feb-25 12:33N 26°06' W 080°07'0 0.4
2017-Feb-25 11:16N 26°06' W 080°07'3 3.7
2017-Feb-25 10:33N 26°06' W 080°04'2 2.4
2017-Feb-25 09:33N 26°05' W 080°07'1 0.4
2017-Feb-25 07:07N 26°06' W 080°07'0 0.9
2017-Feb-25 06:33N 26°06' W 080°07'0 0.4
2017-Feb-25 05:16N 26°06' W 080°07'1 2.1
2017-Feb-25 04:33N 26°05' W 080°07'1 1.2
2017-Feb-25 03:19N 26°06' W 080°07'4 4.9
2017-Feb-25 02:33N 26°04' W 080°04'3 2.8
2017-Feb-25 01:33N 26°06' W 080°07'2 1.6
2017-Feb-25 00:33N 26°06' W 080°05'1 0.6
2017-Feb-24 22:33N 26°06' W 080°06'2 1.5
2017-Feb-24 21:33N 26°06' W 080°05'0 0.5
2017-Feb-24 20:33N 26°05' W 080°04'3 2.5
2017-Feb-24 19:33N 26°06' W 080°07'0 0.2
2017-Feb-24 18:33N 26°05' W 080°07'1 0.6
2017-Feb-24 17:10N 26°06' W 080°07'1 1.8
2017-Feb-24 16:33N 26°06' W 080°06'1 0.7
2017-Feb-24 15:33N 26°05' W 080°07'1 0.7
2017-Feb-24 14:33N 26°06' W 080°07'2 1.8
2017-Feb-24 13:34N 26°06' W 080°06'2 1.6
2017-Feb-24 12:33N 26°05' W 080°07'0 0.4
2017-Feb-24 11:33N 26°04' W 080°07'2 2.1
2017-Feb-24 10:33N 26°05' W 080°05'2 2.0
2017-Feb-24 09:33N 26°05' W 080°07'2 0.4
2017-Feb-24 04:34N 26°06' W 080°05'2 1.1
2017-Feb-24 02:34N 26°04' W 080°07'0 0.2
2017-Feb-24 01:33N 26°05' W 080°07'1 0.8
2017-Feb-24 00:31N 26°05' W 080°07'2 1.9
2017-Feb-23 23:33N 26°05' W 080°05'2 1.8
2017-Feb-23 22:33N 26°06' W 080°07'0 0.2
2017-Feb-23 21:33N 26°05' W 080°07'1 0.5
2017-Feb-23 20:07N 26°06' W 080°07'1 1.5
2017-Feb-23 19:33N 26°05' W 080°07'1 0.4
2017-Feb-23 17:27N 26°06' W 080°07'1 1.3
2017-Feb-23 16:33N 26°05' W 080°07'1 0.9
2017-Feb-23 15:20N 26°06' W 080°07'1 1.1
2017-Feb-23 14:33N 26°05' W 080°07'2 1.5
2017-Feb-23 13:33N 26°06' W 080°05'1 1.4
2017-Feb-23 12:33N 26°06' W 080°07'1 0.7
2017-Feb-23 11:29N 26°06' W 080°07'1 1.4
2017-Feb-23 10:33N 26°05' W 080°07'2 1.2
2017-Feb-23 08:33N 26°06' W 080°04'2 1.8
2017-Feb-23 07:34N 26°06' W 080°06'1 0.7
2017-Feb-23 06:33N 26°05' W 080°07'0 0.2
2017-Feb-23 05:33N 26°05' W 080°07'1 0.6
2017-Feb-23 04:33N 26°06' W 080°07'0 0.1
2017-Feb-23 02:33N 26°06' W 080°07'1 1.2
2017-Feb-23 01:33N 26°06' W 080°05'1 1.4
2017-Feb-23 00:33N 26°06' W 080°07'1 0.1
2017-Feb-22 12:24N 26°06' W 080°07'1 1.1
2017-Feb-22 11:33N 26°05' W 080°07'2 2.4
2017-Feb-22 10:33N 26°05' W 080°04'2 2.3
2017-Feb-22 09:33N 26°05' W 080°07'1 0.9
2017-Feb-22 08:33N 26°04' W 080°07'1 1.0
2017-Feb-22 07:34N 26°05' W 080°07'0 0.4
2017-Feb-22 06:33N 26°06' W 080°07'0 0.3
2017-Feb-22 05:07N 26°06' W 080°07'2 1.0
2017-Feb-22 03:34N 26°06' W 080°06'1 1.2
2017-Feb-22 02:33N 26°06' W 080°07'1 0.7
2017-Feb-22 01:33N 26°05' W 080°07'0 0.2
2017-Feb-22 00:33N 26°05' W 080°07'0 0.2
2017-Feb-21 23:33N 26°05' W 080°07'0 0.1
2017-Feb-21 22:33N 26°05' W 080°07'5 5.1
2017-Feb-21 21:33N 26°07' W 080°02'5 5.1
2017-Feb-21 20:33N 26°06' W 080°07'0 0.3
2017-Feb-21 19:33N 26°05' W 080°07'0 0.2
2017-Feb-21 18:33N 26°06' W 080°07'0 0.3
2017-Feb-21 17:33N 26°06' W 080°06'2 1.6
2017-Feb-21 16:33N 26°06' W 080°05'1 0.9
2017-Feb-21 15:33N 26°05' W 080°06'2 0.5
2017-Feb-21 12:33N 26°06' W 080°07'4 3.7
2017-Feb-21 11:33N 26°06' W 080°03'3 3.0
2017-Feb-21 10:33N 26°06' W 080°06'1 0.8
2017-Feb-21 09:33N 26°05' W 080°07'0 0.2
2017-Feb-21 08:33N 26°05' W 080°07'0 0.1
2017-Feb-21 07:33N 26°05' W 080°07'1 0.6
2017-Feb-21 06:33N 26°06' W 080°07'0 0.0
2017-Feb-21 01:33N 26°06' W 080°07'1 0.6
2017-Feb-21 00:33N 26°05' W 080°07'4 3.7
2017-Feb-20 23:33N 26°06' W 080°03'4 3.9
2017-Feb-20 22:33N 26°05' W 080°07'1 0.7
2017-Feb-20 21:33N 26°06' W 080°07'1 0.1
2017-Feb-20 11:21N 26°06' W 080°07'2 2.9
2017-Feb-20 10:33N 26°06' W 080°05'1 0.7
2017-Feb-20 09:34N 26°06' W 080°04'1 1.4
2017-Feb-20 08:34N 26°06' W 080°03'4 4.1
2017-Feb-20 07:33N 26°06' W 080°07'0 0.0
2017-Feb-20 06:32N 26°06' W 080°07'1 0.9
2017-Feb-20 05:34N 26°05' W 080°07'1 1.3
2017-Feb-20 04:33N 26°06' W 080°06'1 1.3
2017-Feb-20 03:33N 26°06' W 080°07'2 2.3
2017-Feb-20 02:34N 26°06' W 080°05'1 1.1
2017-Feb-20 01:33N 26°06' W 080°06'1 1.1
2017-Feb-20 00:33N 26°05' W 080°07'3 3.3
2017-Feb-19 23:33N 26°05' W 080°03'3 3.3
2017-Feb-19 22:33N 26°05' W 080°07'1 0.6
2017-Feb-19 21:33N 26°06' W 080°06'1 0.1
2017-Feb-19 11:06N 26°06' W 080°07'5 9.8
2017-Feb-19 10:33N 26°06' W 080°01'1 1.3
2017-Feb-19 09:33N 26°06' W 080°03'4 0.9
2017-Feb-19 05:10N 26°06' W 080°07'1 1.3
2017-Feb-19 04:33N 26°05' W 080°07'0 0.3
2017-Feb-19 03:33N 26°06' W 080°07'1 1.3
2017-Feb-19 02:33N 26°06' W 080°06'1 1.4
2017-Feb-19 01:33N 26°06' W 080°07'0 0.1
2017-Feb-19 00:33N 26°06' W 080°07'0 0.4
2017-Feb-18 23:28N 26°06' W 080°07'2 2.4
2017-Feb-18 22:33N 26°06' W 080°05'2 1.6
2017-Feb-18 21:33N 26°06' W 080°07'1 0.1
2017-Feb-18 11:05N 26°06' W 080°07'611.3
2017-Feb-18 10:33N 26°06' W 080°01'1 0.9
2017-Feb-18 09:33N 26°05' W 080°01'5 2.7
2017-Feb-18 07:33N 26°06' W 080°07'0 0.4
2017-Feb-18 06:33N 26°05' W 080°07'0 0.3
2017-Feb-18 05:33N 26°06' W 080°07'1 0.5
2017-Feb-18 04:31N 26°06' W 080°07'2 2.1
2017-Feb-18 03:34N 26°05' W 080°05'2 1.6
2017-Feb-18 02:33N 26°06' W 080°04'3 3.0
2017-Feb-18 01:33N 26°05' W 080°07'1 0.6
2017-Feb-17 23:33N 26°06' W 080°07'1 0.9
2017-Feb-17 22:33N 26°06' W 080°07'1 0.8
2017-Feb-17 21:33N 26°06' W 080°06'1 1.2
2017-Feb-17 20:33N 26°06' W 080°07'1 0.1
2017-Feb-17 15:30N 26°06' W 080°07'0 0.0
2017-Feb-17 14:33N 26°06' W 080°07'0 0.0
2017-Feb-17 13:32N 26°06' W 080°07'0 0.0
2017-Feb-17 12:32N 26°06' W 080°07'1 0.9
2017-Feb-17 11:33N 26°05' W 080°07'1 0.9
2017-Feb-17 10:34N 26°04' W 080°07'2 1.6
2017-Feb-17 09:33N 26°06' W 080°06'4 4.2
2017-Feb-17 08:33N 26°06' W 080°01'5 5.3
2017-Feb-17 07:34N 26°05' W 080°07'1 0.8
2017-Feb-17 06:32N 26°06' W 080°07'1 0.8
2017-Feb-17 05:33N 26°06' W 080°07'2 1.5
2017-Feb-17 04:33N 26°06' W 080°05'2 0.9
2017-Feb-17 02:33N 26°06' W 080°07'0 0.1
2017-Feb-17 01:33N 26°06' W 080°07'0 0.5
2017-Feb-17 00:33N 26°05' W 080°07'1 0.8
2017-Feb-16 23:33N 26°06' W 080°06'1 0.7
2017-Feb-16 22:33N 26°06' W 080°07'2 2.2
2017-Feb-16 21:34N 26°06' W 080°05'2 1.5
2017-Feb-16 20:07N 26°06' W 080°07'1 1.4
2017-Feb-16 19:33N 26°06' W 080°07'1 0.9
2017-Feb-16 18:34N 26°06' W 080°06'1 0.5
2017-Feb-16 16:07N 26°06' W 080°07'4 7.2
2017-Feb-16 15:33N 26°06' W 080°03'0 0.3
2017-Feb-16 14:33N 26°06' W 080°03'4 3.8
2017-Feb-16 13:33N 26°06' W 080°07'3 3.2
2017-Feb-16 12:33N 26°08' W 080°04'3 3.0
2017-Feb-16 11:33N 26°06' W 080°07'2 2.4
2017-Feb-16 10:33N 26°06' W 080°05'1 0.7
2017-Feb-16 09:33N 26°06' W 080°04'3 2.9
2017-Feb-16 08:33N 26°05' W 080°07'2 2.2
2017-Feb-16 07:33N 26°05' W 080°05'2 1.9
2017-Feb-16 06:30N 26°05' W 080°07'0 0.5
2017-Feb-16 05:33N 26°06' W 080°07'1 0.2
2017-Feb-16 00:33N 26°05' W 080°07'1 1.0
2017-Feb-15 23:34N 26°05' W 080°07'  

Dump ship's entire track history